createdAt,value
2018-12-26T00:01:29.264Z,99652.84
2018-12-26T00:04:00.605Z,99652.41
2018-12-26T00:06:32.983Z,99659.55
2018-12-26T00:09:06.142Z,99663.50
2018-12-26T00:11:37.623Z,99661.65
2018-12-26T00:14:09.470Z,99661.65
2018-12-26T00:16:40.847Z,99671.61
2018-12-26T00:19:12.187Z,99671.61
2018-12-26T00:21:43.442Z,99676.41
2018-12-26T00:24:15.602Z,99681.70
2018-12-26T00:26:51.338Z,99685.55
2018-12-26T00:29:23.083Z,99686.73
2018-12-26T00:31:54.595Z,99686.73
2018-12-26T00:34:26.228Z,99684.12
2018-12-26T00:36:57.615Z,99682.05
2018-12-26T00:39:29.404Z,99682.05
2018-12-26T00:42:00.828Z,99681.95
2018-12-26T00:44:32.535Z,99685.59
2018-12-26T00:47:03.844Z,99685.59
2018-12-26T00:49:35.649Z,99694.23
2018-12-26T00:52:06.810Z,99694.23
2018-12-26T00:54:38.816Z,99709.90
2018-12-26T00:57:10.356Z,99702.08
2018-12-26T00:59:42.036Z,99696.97
2018-12-26T01:02:13.390Z,99695.02
2018-12-26T01:04:44.632Z,99692.66
2018-12-26T01:07:15.967Z,99694.92
2018-12-26T01:09:47.392Z,99712.30
2018-12-26T01:12:19.044Z,99711.38
2018-12-26T01:14:50.922Z,99703.14
2018-12-26T01:17:23.347Z,99703.14
2018-12-26T01:19:54.974Z,99715.83
2018-12-26T01:22:26.458Z,99717.03
2018-12-26T01:24:58.323Z,99717.03
2018-12-26T01:27:29.817Z,99721.15
2018-12-26T01:30:01.226Z,99721.06
2018-12-26T01:32:32.626Z,99725.86
2018-12-26T01:35:04.081Z,99729.32
2018-12-26T01:37:36.779Z,99729.32
2018-12-26T01:40:08.149Z,99731.45
2018-12-26T01:42:39.580Z,99738.47
2018-12-26T01:45:10.881Z,99738.47
2018-12-26T01:47:42.069Z,99742.03
2018-12-26T01:50:13.608Z,99748.43
2018-12-26T01:52:44.946Z,99748.81
2018-12-26T01:55:16.879Z,99749.73
2018-12-26T01:57:48.440Z,99751.75
2018-12-26T02:00:20.087Z,99751.75
2018-12-26T02:02:51.367Z,99759.47
2018-12-26T02:05:22.775Z,99759.47
2018-12-26T02:07:54.168Z,99759.47
2018-12-26T02:10:25.611Z,99765.44
2018-12-26T02:12:57.264Z,99771.23
2018-12-26T02:15:29.545Z,99771.23
2018-12-26T02:18:01.024Z,99780.95
2018-12-26T02:20:33.825Z,99780.77
2018-12-26T02:23:05.521Z,99793.59
2018-12-26T02:25:37.306Z,99793.59
2018-12-26T02:28:08.695Z,99803.33
2018-12-26T02:30:39.892Z,99803.33
2018-12-26T02:33:11.431Z,99812.05
2018-12-26T02:35:42.857Z,99814.17
2018-12-26T02:38:14.092Z,99811.45
2018-12-26T02:40:45.651Z,99811.45
2018-12-26T02:43:17.060Z,99814.44
2018-12-26T02:45:48.636Z,99813.80
2018-12-26T02:48:20.300Z,99818.64
2018-12-26T02:50:51.709Z,99818.64
2018-12-26T02:53:23.024Z,99821.27
2018-12-26T02:55:55.079Z,99825.70
2018-12-26T02:58:26.621Z,99823.89
2018-12-26T03:00:58.294Z,99823.89
2018-12-26T03:03:30.484Z,99829.46
2018-12-26T03:06:02.202Z,99835.83
2018-12-26T03:08:33.542Z,99851.14
2018-12-26T03:11:05.001Z,99851.14
2018-12-26T03:13:36.618Z,99851.46
2018-12-26T03:16:08.099Z,99851.46
2018-12-26T03:18:39.410Z,99869.41
2018-12-26T03:21:10.805Z,99871.87
2018-12-26T03:23:42.029Z,99877.86
2018-12-26T03:26:13.877Z,99877.86
2018-12-26T03:28:45.180Z,99881.66
2018-12-26T03:31:17.078Z,99882.42
2018-12-26T03:33:48.693Z,99880.77
2018-12-26T03:36:19.971Z,99898.00
2018-12-26T03:38:51.665Z,99905.09
2018-12-26T03:41:23.646Z,99905.09
2018-12-26T03:43:54.903Z,99906.31
2018-12-26T03:46:26.748Z,99907.65
2018-12-26T03:48:58.006Z,99902.13
2018-12-26T03:51:29.544Z,99902.13
2018-12-26T03:54:01.264Z,99905.64
2018-12-26T03:56:32.802Z,99921.61
2018-12-26T03:59:04.275Z,99915.66
2018-12-26T04:01:35.825Z,99918.95
2018-12-26T04:04:07.404Z,99927.46
2018-12-26T04:06:39.283Z,99927.46
2018-12-26T04:09:11.059Z,99925.91
2018-12-26T04:11:42.286Z,99925.91
2018-12-26T04:14:13.786Z,99927.84
2018-12-26T04:16:45.944Z,99927.84
2018-12-26T04:19:17.123Z,99925.70
2018-12-26T04:21:48.741Z,99922.27
2018-12-26T04:24:19.853Z,99913.90
2018-12-26T04:26:51.884Z,99916.84
2018-12-26T04:29:23.501Z,99920.33
2018-12-26T04:31:55.047Z,99923.06
2018-12-26T04:34:26.370Z,99920.63
2018-12-26T04:36:57.951Z,99913.90
2018-12-26T04:39:29.207Z,99913.90
2018-12-26T04:42:00.819Z,99915.77
2018-12-26T04:44:32.405Z,99915.77
2018-12-26T04:47:03.884Z,99911.11
2018-12-26T04:49:35.719Z,99911.11
2018-12-26T04:52:07.000Z,99911.13
2018-12-26T04:54:38.425Z,99899.34
2018-12-26T04:57:10.290Z,99899.34
2018-12-26T04:59:41.921Z,99893.36
2018-12-26T05:02:13.580Z,99893.36
2018-12-26T05:04:45.253Z,99889.38
2018-12-26T05:07:16.809Z,99889.38
2018-12-26T05:09:48.302Z,99882.45
2018-12-26T05:12:20.125Z,99882.45
2018-12-26T05:14:51.795Z,99874.95
2018-12-26T05:17:23.924Z,99902.24
2018-12-26T05:19:55.350Z,99868.14
2018-12-26T05:22:26.907Z,99868.14
2018-12-26T05:24:58.422Z,99864.69
2018-12-26T05:27:34.303Z,99859.75
2018-12-26T05:30:05.051Z,99859.75
2018-12-26T05:32:36.679Z,99866.09
2018-12-26T05:35:08.397Z,99863.61
2018-12-26T05:37:39.988Z,99854.51
2018-12-26T05:40:11.571Z,99860.60
2018-12-26T05:42:43.132Z,99860.60
2018-12-26T05:45:16.023Z,99839.73
2018-12-26T05:47:47.645Z,99839.63
2018-12-26T05:50:19.331Z,99839.63
2018-12-26T05:52:50.953Z,99836.72
2018-12-26T05:55:22.623Z,99823.13
2018-12-26T05:57:54.847Z,99823.13
2018-12-26T06:00:26.569Z,99814.62
2018-12-26T06:02:58.200Z,99816.81
2018-12-26T06:05:29.890Z,99809.46
2018-12-26T06:08:01.713Z,99809.46
2018-12-26T06:10:33.357Z,99798.86
2018-12-26T06:13:04.867Z,99799.67
2018-12-26T06:15:38.128Z,99796.55
2018-12-26T06:18:09.994Z,99792.72
2018-12-26T06:20:41.658Z,99792.72
2018-12-26T06:23:13.318Z,99762.15
2018-12-26T06:25:44.731Z,99777.47
2018-12-26T06:28:16.741Z,99767.06
2018-12-26T06:30:48.423Z,99743.04
2018-12-26T06:33:20.028Z,99741.02
2018-12-26T06:35:51.868Z,99741.02
2018-12-26T06:38:23.320Z,99742.92
2018-12-26T06:40:55.987Z,99738.55
2018-12-26T06:43:27.541Z,99723.02
2018-12-26T06:46:02.652Z,99722.19
2018-12-26T06:48:48.384Z,99715.40
2018-12-26T06:51:25.709Z,99715.40
2018-12-26T06:53:57.393Z,99722.59
2018-12-26T06:56:28.946Z,99708.05
2018-12-26T06:59:00.800Z,99708.05
2018-12-26T07:01:32.089Z,99696.64
2018-12-26T07:04:03.568Z,99682.91
2018-12-26T07:06:35.024Z,99679.42
2018-12-26T07:09:07.954Z,99679.42
2018-12-26T07:11:39.379Z,99685.03
2018-12-26T07:14:10.581Z,99671.79
2018-12-26T07:16:42.023Z,99667.35
2018-12-26T07:19:13.904Z,99667.91
2018-12-26T07:21:45.346Z,99656.44
2018-12-26T07:24:16.631Z,99649.54
2018-12-26T07:26:48.061Z,99641.93
2018-12-26T07:29:19.875Z,99641.93
2018-12-26T07:31:51.342Z,99639.12
2018-12-26T07:34:22.843Z,99639.89
2018-12-26T07:36:54.221Z,99639.89
2018-12-26T07:39:25.558Z,99638.17
2018-12-26T07:41:56.914Z,99625.13
2018-12-26T07:44:44.166Z,99626.86
2018-12-26T07:47:15.656Z,99618.88
2018-12-26T07:49:47.074Z,99618.88
2018-12-26T07:52:18.543Z,99604.56
2018-12-26T07:54:49.860Z,99593.69
2018-12-26T07:57:21.206Z,99593.69
2018-12-26T07:59:53.305Z,99592.58
2018-12-26T08:02:24.514Z,99589.86
2018-12-26T08:04:56.557Z,99590.98
2018-12-26T08:07:27.872Z,99590.98
2018-12-26T08:09:59.464Z,99579.26
2018-12-26T08:12:30.745Z,99570.55
2018-12-26T08:15:10.165Z,99570.55
2018-12-26T08:17:35.337Z,99566.49
2018-12-26T08:20:07.865Z,99548.95
2018-12-26T08:22:39.198Z,99548.95
2018-12-26T08:25:10.614Z,99539.64
2018-12-26T08:27:42.068Z,99541.48
2018-12-26T08:30:14.089Z,99541.48
2018-12-26T08:32:45.364Z,99538.39
2018-12-26T08:35:16.644Z,99519.92
2018-12-26T08:37:47.898Z,99513.34
2018-12-26T08:40:19.079Z,99513.34
2018-12-26T08:42:50.641Z,99519.33
2018-12-26T08:45:21.978Z,99517.44
2018-12-26T08:47:53.146Z,99517.44
2018-12-26T08:50:25.411Z,99507.17
2018-12-26T08:52:56.696Z,99507.17
2018-12-26T08:55:27.878Z,99506.50
2018-12-26T08:58:01.781Z,99493.93
2018-12-26T09:00:33.548Z,99497.70
2018-12-26T09:03:04.849Z,99502.67
2018-12-26T09:05:36.465Z,99502.17
2018-12-26T09:08:07.904Z,99507.29
2018-12-26T09:10:39.438Z,99507.29
2018-12-26T09:13:10.889Z,99511.91
2018-12-26T09:15:42.803Z,99499.17
2018-12-26T09:18:15.056Z,99499.55
2018-12-26T09:20:47.160Z,99499.55
2018-12-26T09:23:18.832Z,99497.28
2018-12-26T09:25:55.544Z,99498.94
2018-12-26T09:28:28.506Z,99485.47
2018-12-26T09:31:00.523Z,99505.14
2018-12-26T09:33:31.829Z,99494.17
2018-12-26T09:36:03.272Z,99500.14
2018-12-26T09:38:35.173Z,99498.11
2018-12-26T09:41:06.922Z,99498.11
2018-12-26T09:43:38.350Z,99501.05
2018-12-26T09:46:09.777Z,99489.95
2018-12-26T09:48:41.422Z,99480.31
2018-12-26T09:51:13.041Z,99480.31
2018-12-26T09:53:44.317Z,99482.60
2018-12-26T09:56:45.454Z,99492.99
2018-12-26T09:59:17.203Z,99492.99
2018-12-26T10:01:49.231Z,99487.30
2018-12-26T10:04:22.177Z,99494.66
2018-12-26T10:06:53.767Z,99493.54
2018-12-26T10:09:25.240Z,99500.59
2018-12-26T10:11:56.828Z,99497.34
2018-12-26T10:14:28.542Z,99497.34
2018-12-26T10:17:00.155Z,99500.45
2018-12-26T10:19:31.674Z,99498.95
2018-12-26T10:22:03.538Z,99498.95
2018-12-26T10:24:35.197Z,99507.63
2018-12-26T10:27:06.869Z,99514.94
2018-12-26T10:29:38.324Z,99510.69
2018-12-26T10:32:10.948Z,99510.69
2018-12-26T10:34:45.305Z,99514.39
2018-12-26T10:37:17.595Z,99515.45
2018-12-26T10:39:49.040Z,99515.45
2018-12-26T10:42:21.033Z,99508.14
2018-12-26T10:44:52.276Z,99508.42
2018-12-26T10:47:23.727Z,99517.15
2018-12-26T10:49:56.846Z,99524.52
2018-12-26T10:52:28.632Z,99524.52
2018-12-26T10:55:03.246Z,99520.77
2018-12-26T10:57:35.977Z,99524.77
2018-12-26T11:00:08.806Z,99514.01
2018-12-26T11:02:40.778Z,99514.01
2018-12-26T11:05:12.246Z,99527.29
2018-12-26T11:07:43.952Z,99522.98
2018-12-26T11:10:16.531Z,99522.98
2018-12-26T11:12:47.806Z,99523.83
2018-12-26T11:15:19.180Z,99532.33
2018-12-26T11:17:51.132Z,99526.01
2018-12-26T11:20:23.180Z,99526.01
2018-12-26T11:22:55.190Z,99526.66
2018-12-26T11:25:26.937Z,99526.66
2018-12-26T11:27:58.046Z,99526.66
2018-12-26T11:30:29.064Z,99538.39
2018-12-26T11:33:01.509Z,99536.97
2018-12-26T11:35:32.807Z,99549.02
2018-12-26T11:38:04.284Z,99541.50
2018-12-26T11:40:35.518Z,99532.72
2018-12-26T11:43:07.001Z,99547.91
2018-12-26T11:45:38.625Z,99547.91
2018-12-26T11:48:10.509Z,99546.66
2018-12-26T11:50:41.757Z,99547.06
2018-12-26T11:53:13.101Z,99547.06
2018-12-26T11:55:44.520Z,99555.22
2018-12-26T11:58:16.367Z,99557.94
2018-12-26T12:00:47.899Z,99557.94
2018-12-26T12:03:19.778Z,99568.63
2018-12-26T12:05:51.177Z,99564.31
2018-12-26T12:08:22.771Z,99564.31
2018-12-26T12:10:54.216Z,99571.34
2018-12-26T12:13:25.864Z,99571.34
2018-12-26T12:15:57.120Z,99583.81
2018-12-26T12:18:28.305Z,99587.27
2018-12-26T12:21:00.226Z,99587.27
2018-12-26T12:23:32.101Z,99587.22
2018-12-26T12:26:03.269Z,99592.88
2018-12-26T12:28:36.377Z,99592.88
2018-12-26T12:31:11.977Z,99598.09
2018-12-26T12:33:44.559Z,99607.22
2018-12-26T12:36:28.550Z,99602.00
2018-12-26T12:39:01.257Z,99602.00
2018-12-26T12:41:34.446Z,99615.05
2018-12-26T12:44:05.970Z,99631.86
2018-12-26T12:46:37.288Z,99631.86
2018-12-26T12:49:14.082Z,99635.05
2018-12-26T12:51:52.120Z,99639.91
2018-12-26T12:54:24.199Z,99639.91
2018-12-26T12:56:59.582Z,99641.27
2018-12-26T12:59:32.556Z,99640.55
2018-12-26T13:02:03.806Z,99640.55
2018-12-26T13:04:37.839Z,99649.09
2018-12-26T13:07:09.250Z,99649.09
2018-12-26T13:09:40.735Z,99651.25
2018-12-26T13:12:12.106Z,99651.25
2018-12-26T13:14:43.280Z,99646.08
2018-12-26T13:17:14.472Z,99646.08
2018-12-26T13:19:46.332Z,99640.86
2018-12-26T13:22:18.091Z,99638.61
2018-12-26T13:24:49.993Z,99638.61
2018-12-26T13:27:21.250Z,99644.08
2018-12-26T13:29:53.846Z,99644.08
2018-12-26T13:32:25.345Z,99636.76
2018-12-26T13:34:59.414Z,99640.16
2018-12-26T13:37:42.285Z,99644.73
2018-12-26T13:40:13.576Z,99651.25
2018-12-26T13:42:44.805Z,99658.31
2018-12-26T13:45:16.498Z,99658.31
2018-12-26T13:47:47.714Z,99665.73
2018-12-26T13:50:19.703Z,99665.73
2018-12-26T13:52:51.325Z,99679.42
2018-12-26T13:55:22.917Z,99687.13
2018-12-26T13:57:54.119Z,99682.28
2018-12-26T14:00:25.846Z,99681.63
2018-12-26T14:02:57.000Z,99681.63
2018-12-26T14:05:28.986Z,99677.56
2018-12-26T14:08:00.585Z,99688.33
2018-12-26T14:10:31.773Z,99688.33
2018-12-26T14:13:04.145Z,99690.03
2018-12-26T14:15:44.397Z,99693.63
2018-12-26T14:18:20.917Z,99693.70
2018-12-26T14:20:53.279Z,99701.02
2018-12-26T14:23:25.004Z,99703.17
2018-12-26T14:25:56.637Z,99702.27
2018-12-26T14:28:29.113Z,99708.34
2018-12-26T14:31:00.967Z,99708.34
2018-12-26T14:33:33.827Z,99708.73
2018-12-26T14:36:05.651Z,99707.94
2018-12-26T14:38:37.161Z,99702.01
2018-12-26T14:41:08.434Z,99702.01
2018-12-26T14:43:40.002Z,99706.08
2018-12-26T14:46:11.158Z,99711.19
2018-12-26T14:48:42.451Z,99715.33
2018-12-26T14:51:13.808Z,99715.33
2018-12-26T14:53:49.464Z,99718.27
2018-12-26T14:56:23.267Z,99713.23
2018-12-26T14:58:54.649Z,99713.23
2018-12-26T15:01:26.016Z,99714.80
2018-12-26T15:03:57.149Z,99709.58
2018-12-26T15:06:28.862Z,99711.79
2018-12-26T15:09:00.378Z,99711.79
2018-12-26T15:11:32.354Z,99713.39
2018-12-26T15:14:03.612Z,99717.02
2018-12-26T15:16:34.896Z,99717.02
2018-12-26T15:19:25.125Z,99721.13
2018-12-26T15:21:56.493Z,99711.23
2018-12-26T15:24:28.561Z,99711.23
2018-12-26T15:27:00.157Z,99714.16
2018-12-26T15:29:31.392Z,99714.33
2018-12-26T15:32:03.054Z,99711.52
2018-12-26T15:34:34.338Z,99722.01
2018-12-26T15:37:06.201Z,99722.01
2018-12-26T15:39:37.668Z,99727.41
2018-12-26T15:42:09.286Z,99727.41
2018-12-26T15:44:40.438Z,99730.66
2018-12-26T15:47:12.784Z,99727.77
2018-12-26T15:49:43.966Z,99732.23
2018-12-26T15:52:15.780Z,99749.58
2018-12-26T15:54:46.929Z,99747.98
2018-12-26T15:57:18.310Z,99751.39
2018-12-26T15:59:49.626Z,99751.39
2018-12-26T16:02:21.333Z,99746.68
2018-12-26T16:04:52.484Z,99741.23
2018-12-26T16:07:24.388Z,99743.58
2018-12-26T16:09:55.847Z,99743.91
2018-12-26T16:12:27.623Z,99743.91
2018-12-26T16:14:59.035Z,99744.37
2018-12-26T16:17:30.820Z,99753.94
2018-12-26T16:20:02.219Z,99751.94
2018-12-26T16:22:33.813Z,99756.17
2018-12-26T16:25:05.453Z,99757.36
2018-12-26T16:27:36.898Z,99757.31
2018-12-26T16:30:10.009Z,99753.64
2018-12-26T16:32:41.298Z,99753.64
2018-12-26T16:35:12.834Z,99754.64
2018-12-26T16:37:44.655Z,99754.64
2018-12-26T16:40:16.219Z,99755.17
2018-12-26T16:42:48.186Z,99767.15
2018-12-26T16:45:19.415Z,99767.15
2018-12-26T16:47:50.822Z,99761.03
2018-12-26T16:50:26.979Z,99762.88
2018-12-26T16:52:55.551Z,99759.43
2018-12-26T16:55:26.833Z,99766.41
2018-12-26T16:57:58.294Z,99763.36
2018-12-26T17:00:29.479Z,99760.09
2018-12-26T17:03:00.977Z,99759.83
2018-12-26T17:05:32.465Z,99764.02
2018-12-26T17:08:04.530Z,99760.98
2018-12-26T17:10:36.040Z,99761.61
2018-12-26T17:13:07.837Z,99765.30
2018-12-26T17:15:39.036Z,99763.12
2018-12-26T17:18:10.642Z,99760.86
2018-12-26T17:20:42.278Z,99764.86
2018-12-26T17:23:14.027Z,99757.48
2018-12-26T17:25:45.303Z,99757.48
2018-12-26T17:28:17.296Z,99752.46
2018-12-26T17:30:48.607Z,99755.20
2018-12-26T17:33:20.250Z,99752.73
2018-12-26T17:35:51.799Z,99751.06
2018-12-26T17:38:23.704Z,99751.06
2018-12-26T17:40:55.200Z,99751.14
2018-12-26T17:43:27.706Z,99748.33
2018-12-26T17:45:59.223Z,99748.33
2018-12-26T17:48:34.029Z,99755.30
2018-12-26T17:51:19.520Z,99753.02
2018-12-26T17:54:29.395Z,99741.87
2018-12-26T17:57:06.612Z,99741.87
2018-12-26T17:59:45.900Z,99747.62
2018-12-26T18:02:25.116Z,99744.41
2018-12-26T18:04:56.501Z,99749.59
2018-12-26T18:07:27.800Z,99749.43
2018-12-26T18:09:59.476Z,99746.53
2018-12-26T18:12:35.963Z,99746.53
2018-12-26T18:15:10.517Z,99749.33
2018-12-26T18:17:41.813Z,99751.55
2018-12-26T18:20:13.476Z,99751.55
2018-12-26T18:22:45.188Z,99743.76
2018-12-26T18:25:16.873Z,99737.00
2018-12-26T18:27:48.677Z,99737.00
2018-12-26T18:30:21.171Z,99738.67
2018-12-26T18:32:53.219Z,99738.73
2018-12-26T18:35:24.464Z,99739.55
2018-12-26T18:37:56.003Z,99735.28
2018-12-26T18:40:28.053Z,99733.10
2018-12-26T18:42:59.529Z,99733.10
2018-12-26T18:45:30.900Z,99719.10
2018-12-26T18:48:02.458Z,99719.10
2018-12-26T18:50:34.337Z,99729.98
2018-12-26T18:53:05.962Z,99732.30
2018-12-26T18:55:37.081Z,99732.75
2018-12-26T18:58:08.611Z,99732.75
2018-12-26T19:00:40.007Z,99736.64
2018-12-26T19:03:11.603Z,99736.64
2018-12-26T19:05:43.467Z,99730.59
2018-12-26T19:08:14.755Z,99729.58
2018-12-26T19:10:46.443Z,99726.30
2018-12-26T19:13:18.436Z,99723.67
2018-12-26T19:15:49.695Z,99723.86
2018-12-26T19:18:21.213Z,99718.33
2018-12-26T19:20:52.612Z,99724.09
2018-12-26T19:23:24.049Z,99721.33
2018-12-26T19:25:55.191Z,99721.33
2018-12-26T19:28:27.346Z,99729.34
2018-12-26T19:30:59.750Z,99722.28
2018-12-26T19:33:31.495Z,99729.21
2018-12-26T19:36:04.369Z,99733.98
2018-12-26T19:38:35.732Z,99734.87
2018-12-26T19:41:07.698Z,99734.87
2018-12-26T19:43:40.805Z,99726.84
2018-12-26T19:46:12.282Z,99732.34
2018-12-26T19:48:43.981Z,99732.34
2018-12-26T19:51:15.301Z,99737.22
2018-12-26T19:53:53.519Z,99735.34
2018-12-26T19:56:25.085Z,99735.34
2018-12-26T19:58:56.696Z,99741.58
2018-12-26T20:01:29.506Z,99738.58
2018-12-26T20:04:01.150Z,99738.58
2018-12-26T20:06:32.487Z,99740.02
2018-12-26T20:09:04.427Z,99740.02
2018-12-26T20:11:38.505Z,99730.19
2018-12-26T20:14:09.554Z,99731.55
2018-12-26T20:16:40.861Z,99731.55
2018-12-26T20:19:12.428Z,99729.81
2018-12-26T20:21:43.760Z,99720.95
2018-12-26T20:24:15.238Z,99729.31
2018-12-26T20:26:46.886Z,99729.31
2018-12-26T20:29:18.702Z,99718.86
2018-12-26T20:31:56.865Z,99721.57
2018-12-26T20:34:23.190Z,99721.57
2018-12-26T20:36:54.910Z,99721.57
2018-12-26T20:39:26.604Z,99718.27
2018-12-26T20:41:58.704Z,99718.09
2018-12-26T20:44:30.101Z,99719.95
2018-12-26T20:47:01.708Z,99716.45
2018-12-26T20:49:32.990Z,99714.45
2018-12-26T20:52:04.672Z,99718.69
2018-12-26T20:54:36.394Z,99718.39
2018-12-26T20:57:07.876Z,99712.48
2018-12-26T20:59:39.380Z,99710.95
2018-12-26T21:02:11.022Z,99711.94
2018-12-26T21:04:42.265Z,99702.73
2018-12-26T21:07:13.518Z,99701.84
2018-12-26T21:09:44.978Z,99701.84
2018-12-26T21:12:16.954Z,99700.41
2018-12-26T21:14:48.297Z,99700.41
2018-12-26T21:17:19.696Z,99691.07
2018-12-26T21:19:50.999Z,99691.07
2018-12-26T21:22:22.471Z,99695.57
2018-12-26T21:24:54.165Z,99693.30
2018-12-26T21:27:25.484Z,99686.50
2018-12-26T21:29:57.164Z,99684.41
2018-12-26T21:32:28.759Z,99684.41
2018-12-26T21:35:00.269Z,99691.42
2018-12-26T21:37:31.806Z,99691.42
2018-12-26T21:40:03.171Z,99683.89
2018-12-26T21:42:35.283Z,99683.33
2018-12-26T21:45:07.340Z,99669.05
2018-12-26T21:47:39.090Z,99683.29
2018-12-26T21:50:12.586Z,99683.29
2018-12-26T21:52:43.931Z,99683.65
2018-12-26T21:55:15.103Z,99685.36
2018-12-26T21:57:46.587Z,99683.18
2018-12-26T22:00:18.380Z,99683.18
2018-12-26T22:02:49.919Z,99685.70
2018-12-26T22:05:21.482Z,99687.59
2018-12-26T22:07:52.801Z,99687.59
2018-12-26T22:10:24.068Z,99683.84
2018-12-26T22:12:56.143Z,99678.77
2018-12-26T22:15:27.758Z,99678.77
2018-12-26T22:17:58.991Z,99677.48
2018-12-26T22:20:30.289Z,99672.28
2018-12-26T22:23:01.688Z,99671.34
2018-12-26T22:25:33.351Z,99673.78
2018-12-26T22:28:05.039Z,99675.22
2018-12-26T22:30:37.234Z,99673.38
2018-12-26T22:33:09.569Z,99673.38
2018-12-26T22:35:41.158Z,99683.98
2018-12-26T22:38:12.402Z,99681.64
2018-12-26T22:40:43.873Z,99679.52
2018-12-26T22:43:15.995Z,99678.17
2018-12-26T22:45:47.329Z,99679.98
2018-12-26T22:48:18.600Z,99679.98
2018-12-26T22:50:50.159Z,99682.14
2018-12-26T22:53:21.562Z,99690.29
2018-12-26T22:55:52.856Z,99690.29
2018-12-26T22:58:24.456Z,99688.17
2018-12-26T23:00:55.706Z,99691.31
2018-12-26T23:03:27.498Z,99686.95
2018-12-26T23:05:58.973Z,99704.25
2018-12-26T23:08:30.513Z,99704.25
2018-12-26T23:11:01.983Z,99695.52
2018-12-26T23:13:33.852Z,99695.52
2018-12-26T23:16:05.400Z,99697.41
2018-12-26T23:18:36.832Z,99699.98
2018-12-26T23:21:08.066Z,99702.13
2018-12-26T23:23:39.322Z,99702.13
2018-12-26T23:26:10.869Z,99702.31
2018-12-26T23:28:42.577Z,99711.45
2018-12-26T23:31:14.498Z,99717.04
2018-12-26T23:33:45.900Z,99704.45
2018-12-26T23:36:17.443Z,99715.92
2018-12-26T23:38:49.228Z,99715.92
2018-12-26T23:41:20.738Z,99715.82
2018-12-26T23:43:53.075Z,99715.82
2018-12-26T23:46:24.604Z,99724.61
2018-12-26T23:48:56.113Z,99728.89
2018-12-26T23:51:27.316Z,99736.21
2018-12-26T23:53:59.263Z,99729.78
2018-12-26T23:56:30.864Z,99726.52
2018-12-26T23:59:02.287Z,99723.79
